Wednesday, September 24, 2014
02:34 UTC
  |  Log In   |  Register Free
Airport Search:

Shenandoah Valley Regional Airport
(KSHD)

Shenandoah Valley Regional Airport Diagram
No Airport Diagram Available

FAA data valid effective September 18, 2014 - November 13, 2014 (unless otherwise noted).

 
 
 
 
 
 
 
 
 
 
 
 
 
 

Current Aviation Weather for Shenandoah Valley Regional Airport (KSHD)

The most recent METAR observation for KSHD was updated at: 0214
METAR Summary (Translated METAR)
KSHD
240155Z AUTO 00000KT 10SM CLR 13/07 A3039 RMK AO2 T01330066
KCHO
240153Z 00000KT 10SM CLR 13/08 A3037 RMK AO2 SLP283 T01330083
(22.2 nm SE from KSHD)
KGVE
240155Z AUTO 00000KT 10SM CLR 11/09 A3037 RMK AO1 T01080093
(35.1 nm SE from KSHD)
TAF Summary (Translated TAF)
KCHO
(22.2 nm SE from KSHD)
232052Z 2321/2418 VRB04KT P6SM BKN250 FM241500 05009KT P6SM BKN130
  Airport Weather Conditions for KSHD

 Current Weather at SHD
56° F
Fair
North winds at 0.0 mph
SHD NOAA Radar

Pressure: 30.39 in
Humidity: 64%
Wind: Calm
Dew Point: 43.9°F
Visibility: 10.00 mi


Airport Weather Forecast for KSHD

Translated METAR and TAF for KSHD
Translated METAR for KSHD (0229 UTC 24 September 2014)
found at http://aviationweather.gov/adds/metars/
 
METAR text: KSHD 240215Z AUTO 00000KT 10SM CLR 12/07 A3040 RMK AO2 T01200065
Conditions at: KSHD (STAUNTON/SHENAND, VA, US) observed 0215 UTC 24 September 2014
Temperature: 12.0°C (54°F)
Dewpoint: 6.5°C (44°F) [RH = 69%]
Pressure (altimeter): 30.40 inches Hg (1029.5 mb)
Winds: calm
Visibility: 10 or more miles (16+ km)
Ceiling: at least 12,000 feet AGL
Clouds: sky clear below 12,000 feet AGL
Weather: automated observation with no human augmentation;
there may or may not be significant weather present at this time
Translated TAF for KSHD

There is no translated TAF available for this airport

Find All Airport Services Find A Hotel Find A Rental Car Find A Golf Course Find A Restaurant $100 Hamburger



FBO's on the Field
FBO Company Facility Photos Services Transportation Aviation Fuel Prices: Prices include tax
Catering Weather Repair Courtesy Rental Type 100LL JetA JetA+ MOGAS 8087
 
Avnet Shenandoah Valley

This FBO has not yet been rated
FS:Avfuel
Last Updated: Aug-22
Login to update fuel prices
SS:
Contact Avnet Shenandoah ValleyMore FBO Information
 
Add another FBO Facility Photos Catering Weather Repair Courtesy Rental Type 100LL JetA JetA+ MOGAS 8087
Services Transportation Aviation Fuel Prices: Prices include tax


model-print
model-print
model-print
model-print